Time;durP1;ratioP1;P1;durP2;ratioP2;P2;SDS_P1;SDS_P2;PMS_P1;PMS_P2;Temp;Humidity;BMP_temperature;BMP_pressure;BME280_temperature;BME280_humidity;BME280_pressure;Samples;Min_cycle;Max_cycle;Signal;HPM_P1;HPM_P2
2021/08/23 00:00:40;;;;;;;1.75;1.20;;;;;;;17.00;83.95;100441.00;10328990;28;20050;-57
2021/08/23 00:05:42;;;;;;;3.50;1.70;;;;;;;17.10;84.96;100452.47;10331341;28;20089;-59
2021/08/23 00:10:44;;;;;;;1.90;1.58;;;;;;;16.96;84.47;100449.38;10331100;28;20037;-60
2021/08/23 00:15:51;;;;;;;3.03;1.75;;;;;;;17.02;85.95;100445.19;10329597;28;20492;-60
2021/08/23 00:21:01;;;;;;;2.35;1.55;;;;;;;16.94;85.03;100448.69;10344317;28;20135;-61
2021/08/23 00:26:03;;;;;;;1.85;1.38;;;;;;;16.93;86.43;100446.16;10338872;28;20050;-61
2021/08/23 00:31:04;;;;;;;4.45;1.83;;;;;;;16.87;84.88;100446.78;10329872;28;20042;-60
2021/08/23 00:36:06;;;;;;;2.50;1.90;;;;;;;16.84;85.05;100447.91;10328551;28;20451;-61
2021/08/23 00:41:08;;;;;;;2.70;2.20;;;;;;;16.74;84.75;100442.66;10327986;28;20062;-59
2021/08/23 00:46:10;;;;;;;3.58;1.73;;;;;;;16.75;86.54;100448.88;10324777;28;20046;-58
2021/08/23 00:51:12;;;;;;;3.17;1.88;;;;;;;16.76;85.88;100435.28;10329038;28;20050;-60
2021/08/23 00:56:15;;;;;;;2.67;2.08;;;;;;;16.85;85.30;100444.22;10331721;28;20085;-58
2021/08/23 01:01:41;;;;;;;2.83;2.00;;;;;;;16.83;84.30;100454.31;10326225;28;20046;-57
2021/08/23 01:06:44;;;;;;;3.05;1.98;;;;;;;16.85;85.56;100463.06;10327434;28;20137;-58
2021/08/23 01:11:51;;;;;;;2.22;1.83;;;;;;;16.89;86.66;100456.41;10329807;28;20200;-59
2021/08/23 01:16:52;;;;;;;2.45;2.20;;;;;;;16.93;86.62;100465.84;10330994;28;20452;-59
2021/08/23 01:21:57;;;;;;;2.63;1.90;;;;;;;17.03;86.71;100456.81;10343816;28;20078;-59
2021/08/23 01:27:02;;;;;;;3.28;2.38;;;;;;;17.09;85.89;100458.84;10334813;28;20753;-59
2021/08/23 01:32:14;;;;;;;3.15;2.40;;;;;;;17.03;84.67;100459.50;10335330;28;20050;-59
2021/08/23 01:37:16;;;;;;;3.67;2.25;;;;;;;17.05;85.65;100463.69;10329444;28;20065;-58
2021/08/23 01:42:18;;;;;;;2.90;2.22;;;;;;;17.07;84.69;100468.91;10335583;28;20058;-58
2021/08/23 01:47:20;;;;;;;2.92;2.60;;;;;;;17.10;85.31;100463.22;10339691;28;20478;-59
2021/08/23 01:52:21;;;;;;;4.88;3.08;;;;;;;17.19;86.34;100473.00;10335307;28;20726;-59
2021/08/23 01:57:22;;;;;;;4.15;2.58;;;;;;;17.17;86.25;100466.94;10331176;28;20058;-60
2021/08/23 02:02:24;;;;;;;3.15;2.53;;;;;;;17.03;85.68;100478.31;10333072;28;20514;-58
2021/08/23 02:07:26;;;;;;;3.30;2.28;;;;;;;17.15;86.31;100479.72;10332809;28;20051;-61
2021/08/23 02:12:27;;;;;;;3.03;2.50;;;;;;;17.11;85.27;100475.66;10330098;28;20656;-58
2021/08/23 02:17:29;;;;;;;5.97;2.20;;;;;;;17.09;85.73;100464.22;10335157;28;20230;-57
2021/08/23 02:22:30;;;;;;;3.03;2.30;;;;;;;16.99;85.18;100476.94;10337558;28;20062;-61
2021/08/23 02:27:32;;;;;;;3.83;2.40;;;;;;;16.85;86.00;100475.66;10332161;28;20046;-60
2021/08/23 02:32:36;;;;;;;3.75;2.70;;;;;;;16.81;86.11;100471.59;10329129;28;20074;-61
2021/08/23 02:37:37;;;;;;;5.03;2.50;;;;;;;16.75;87.31;100473.06;10328216;28;20120;-59
2021/08/23 02:42:39;;;;;;;3.72;2.40;;;;;;;16.65;87.37;100469.63;10343399;28;20064;-58
2021/08/23 02:47:41;;;;;;;3.97;2.58;;;;;;;16.71;86.90;100475.25;10331093;28;20128;-58
2021/08/23 02:52:42;;;;;;;5.47;2.35;;;;;;;16.61;86.37;100475.34;10327248;28;20106;-57
2021/08/23 02:57:44;;;;;;;4.15;2.70;;;;;;;16.58;88.14;100483.72;10324033;28;20049;-58
2021/08/23 03:02:45;;;;;;;3.28;2.65;;;;;;;16.72;87.80;100481.44;10326566;28;20511;-59
2021/08/23 03:07:46;;;;;;;2.72;2.35;;;;;;;16.83;87.81;100478.50;10341133;28;20389;-61
2021/08/23 03:12:48;;;;;;;3.00;2.45;;;;;;;16.90;87.29;100487.66;10327089;28;20041;-58
2021/08/23 03:17:49;;;;;;;6.10;2.42;;;;;;;16.95;87.39;100498.78;10331878;28;20042;-60
2021/08/23 03:22:52;;;;;;;2.67;2.47;;;;;;;16.94;87.70;100489.00;10322459;28;20054;-59
2021/08/23 03:27:53;;;;;;;4.00;2.72;;;;;;;16.99;87.76;100499.28;10330723;28;20482;-57
2021/08/23 03:32:55;;;;;;;4.65;2.75;;;;;;;16.96;87.61;100497.78;10327571;28;20055;-58
2021/08/23 03:37:59;;;;;;;5.03;2.72;;;;;;;16.98;86.99;100502.13;10323374;28;20062;-61
2021/08/23 03:43:00;;;;;;;7.17;3.37;;;;;;;16.93;87.34;100489.16;10325158;28;20663;-59
2021/08/23 03:48:02;;;;;;;3.60;2.55;;;;;;;17.01;86.32;100499.13;10323236;28;20335;-61
2021/08/23 03:53:03;;;;;;;3.42;2.55;;;;;;;16.99;86.64;100501.16;10324473;28;20129;-59
2021/08/23 03:58:04;;;;;;;2.67;2.47;;;;;;;16.84;87.35;100508.91;10323340;28;20070;-59
2021/08/23 04:03:06;;;;;;;4.22;2.83;;;;;;;16.95;87.25;100509.53;10344035;28;20121;-57
2021/08/23 04:08:07;;;;;;;2.92;2.55;;;;;;;17.04;87.69;100507.72;10318948;28;20220;-60
2021/08/23 04:13:08;;;;;;;3.42;2.65;;;;;;;17.01;86.95;100504.50;10328620;28;20125;-59
2021/08/23 04:18:10;;;;;;;3.70;2.97;;;;;;;16.89;86.38;100510.16;10316916;28;20058;-59
2021/08/23 04:23:11;;;;;;;4.68;2.92;;;;;;;16.89;88.29;100510.16;10310020;28;20062;-59
2021/08/23 04:28:13;;;;;;;3.45;2.50;;;;;;;16.95;87.28;100512.22;10316443;28;20238;-58
2021/08/23 04:33:14;;;;;;;8.50;3.50;;;;;;;16.93;88.01;100511.53;10325268;28;20069;-58
2021/08/23 04:38:15;;;;;;;5.65;2.85;;;;;;;17.05;88.46;100508.56;10326001;28;20076;-58
2021/08/23 04:43:17;;;;;;;6.55;2.78;;;;;;;17.06;87.39;100510.25;10319350;28;20077;-56
2021/08/23 04:48:18;;;;;;;4.63;2.92;;;;;;;17.07;87.29;100504.72;10320242;28;20081;-58
2021/08/23 04:53:20;;;;;;;5.47;4.03;;;;;;;17.05;86.66;100511.25;10332150;28;20965;-59
2021/08/23 04:58:22;;;;;;;4.35;3.40;;;;;;;17.09;88.41;100512.63;10313751;28;20141;-61
2021/08/23 05:03:24;;;;;;;4.18;3.15;;;;;;;17.16;88.53;100521.75;10309065;28;20163;-59
2021/08/23 05:08:25;;;;;;;4.03;2.83;;;;;;;17.21;88.23;100529.34;10317402;28;20141;-60
2021/08/23 05:13:27;;;;;;;3.50;3.20;;;;;;;17.27;88.12;100532.22;10323596;28;20104;-61
2021/08/23 05:18:29;;;;;;;3.47;3.17;;;;;;;17.28;88.18;100520.47;10322033;28;20140;-60
2021/08/23 05:23:30;;;;;;;6.68;3.30;;;;;;;17.36;87.53;100521.50;10318630;28;20132;-57
2021/08/23 05:28:32;;;;;;;6.63;3.55;;;;;;;17.46;86.48;100530.31;10320929;28;20546;-57
2021/08/23 05:33:34;;;;;;;3.95;3.33;;;;;;;17.46;87.26;100520.38;10318452;28;20145;-57
2021/08/23 05:38:35;;;;;;;4.63;3.42;;;;;;;17.42;87.01;100531.63;10317847;28;20157;-56
2021/08/23 05:43:36;;;;;;;4.65;3.65;;;;;;;17.48;87.70;100526.44;10319306;28;20061;-59
2021/08/23 05:48:38;;;;;;;5.03;3.75;;;;;;;17.48;86.26;100522.91;10319297;28;20123;-60
2021/08/23 05:53:39;;;;;;;4.97;3.92;;;;;;;17.47;85.80;100523.91;10317126;28;20077;-60
2021/08/23 05:58:41;;;;;;;6.50;3.60;;;;;;;17.57;87.08;100534.56;10314566;28;20472;-60
2021/08/23 06:03:42;;;;;;;6.97;4.65;;;;;;;17.60;85.55;100529.66;10314027;28;20435;-60
2021/08/23 06:08:44;;;;;;;7.85;4.57;;;;;;;17.66;86.97;100534.41;10312901;28;20057;-60
2021/08/23 06:13:45;;;;;;;7.03;4.38;;;;;;;17.81;86.48;100536.47;10308719;28;20137;-59
2021/08/23 06:18:47;;;;;;;4.80;4.40;;;;;;;17.88;85.35;100532.13;10318290;28;20127;-59
2021/08/23 06:23:48;;;;;;;7.53;4.68;;;;;;;18.00;86.25;100530.84;10314999;28;20227;-58
2021/08/23 06:28:49;;;;;;;4.40;4.00;;;;;;;18.16;85.72;100531.84;10310695;28;20129;-61
2021/08/23 06:33:51;;;;;;;7.20;4.60;;;;;;;18.16;85.10;100529.16;10310557;28;20083;-60
2021/08/23 06:38:52;;;;;;;8.00;4.78;;;;;;;18.13;85.02;100534.88;10310700;28;20080;-61
2021/08/23 06:43:55;;;;;;;6.78;5.00;;;;;;;18.12;84.36;100534.06;10316322;28;20104;-60
2021/08/23 06:48:57;;;;;;;10.88;5.30;;;;;;;18.06;84.05;100528.47;10308448;28;20527;-59
2021/08/23 06:54:00;;;;;;;8.77;4.65;;;;;;;18.14;84.69;100531.19;10312039;28;20081;-61
2021/08/23 06:59:01;;;;;;;6.97;5.23;;;;;;;18.15;84.77;100541.81;10314593;28;20069;-60
2021/08/23 07:04:03;;;;;;;6.30;5.70;;;;;;;18.19;85.12;100539.59;10313562;28;20524;-59
2021/08/23 07:09:04;;;;;;;7.20;5.70;;;;;;;18.31;84.71;100542.81;10315064;28;20054;-59
2021/08/23 07:14:05;;;;;;;6.18;5.50;;;;;;;18.51;82.21;100543.34;10315685;28;20061;-59
2021/08/23 07:19:07;;;;;;;6.35;5.43;;;;;;;18.59;79.89;100540.66;10314362;28;20174;-60
2021/08/23 07:24:10;;;;;;;6.15;5.28;;;;;;;18.75;80.68;100550.59;10310483;28;20145;-59
2021/08/23 07:29:15;;;;;;;7.82;5.30;;;;;;;19.17;80.78;100546.84;10313709;28;20061;-60
2021/08/23 07:34:16;;;;;;;6.80;4.65;;;;;;;19.58;80.53;100535.06;10327539;28;20189;-61
2021/08/23 07:39:18;;;;;;;6.65;5.72;;;;;;;19.91;78.17;100548.44;10314893;28;20062;-61
2021/08/23 07:44:19;;;;;;;5.63;5.13;;;;;;;20.12;77.78;100551.31;10319630;28;20232;-62
2021/08/23 07:49:21;;;;;;;6.07;5.57;;;;;;;20.35;76.15;100553.19;10312826;28;20455;-61
2021/08/23 07:54:22;;;;;;;7.00;6.30;;;;;;;20.47;70.55;100556.31;10311456;28;20133;-60
2021/08/23 07:59:24;;;;;;;7.22;6.53;;;;;;;20.52;72.30;100556.59;10317067;28;20148;-60
2021/08/23 08:04:25;;;;;;;7.22;6.63;;;;;;;20.39;71.59;100565.34;10315197;28;20049;-59
2021/08/23 08:09:26;;;;;;;8.43;7.15;;;;;;;20.55;71.69;100558.97;10311570;28;20077;-59
2021/08/23 08:14:28;;;;;;;7.00;5.90;;;;;;;20.51;72.65;100568.47;10315357;28;20549;-60
2021/08/23 08:19:29;;;;;;;6.82;6.25;;;;;;;21.25;71.28;100573.22;10311849;28;20455;-61
2021/08/23 08:24:32;;;;;;;5.88;5.38;;;;;;;21.76;68.72;100582.47;10316958;28;20104;-60
2021/08/23 08:29:33;;;;;;;7.38;6.68;;;;;;;21.49;66.48;100585.63;10320841;28;20050;-61
2021/08/23 08:34:35;;;;;;;9.38;7.38;;;;;;;21.56;67.43;100587.63;10318608;28;20519;-60
2021/08/23 08:39:36;;;;;;;6.88;6.38;;;;;;;21.68;65.53;100584.25;10315242;28;20108;-61
2021/08/23 08:44:38;;;;;;;6.28;5.68;;;;;;;22.03;64.21;100589.06;10335702;28;20077;-59
2021/08/23 08:49:40;;;;;;;6.40;5.03;;;;;;;22.24;64.66;100594.50;10332513;28;20512;-61
2021/08/23 08:54:43;;;;;;;5.07;4.68;;;;;;;22.56;63.05;100588.78;10322100;28;20363;-61
2021/08/23 08:59:44;;;;;;;5.70;5.15;;;;;;;22.62;62.44;100592.63;10321105;28;20058;-61
2021/08/23 09:04:45;;;;;;;5.43;4.93;;;;;;;22.48;61.94;100591.66;10315416;28;20050;-61
2021/08/23 09:09:47;;;;;;;6.13;5.53;;;;;;;22.44;61.75;100595.78;10322461;28;20132;-61
2021/08/23 09:14:51;;;;;;;6.03;5.53;;;;;;;22.62;61.70;100604.28;10319795;28;20045;-60
2021/08/23 09:20:06;;;;;;;6.60;4.53;;;;;;;23.17;61.25;100596.44;10319696;28;20152;-59
2021/08/23 09:25:09;;;;;;;5.43;4.28;;;;;;;23.48;60.26;100598.72;10321341;28;20221;-51
2021/08/23 09:30:13;;;;;;;;;;;;;;;23.19;59.97;100607.91;10320620;28;20111;-56
2021/08/23 09:35:30;;;;;;;5.68;5.18;;;;;;;22.67;61.09;100609.13;10314988;28;20028;-56
2021/08/23 09:40:32;;;;;;;6.38;5.50;;;;;;;22.15;61.73;100614.63;10321795;28;20061;-57
2021/08/23 09:45:33;;;;;;;5.10;4.57;;;;;;;22.01;63.15;100604.69;10315866;28;20121;-62
2021/08/23 09:50:46;;;;;;;7.47;5.07;;;;;;;22.25;62.79;100615.16;10322134;28;20100;-62
2021/08/23 09:55:52;;;;;;;6.78;4.95;;;;;;;22.19;63.26;100626.78;10313066;28;20085;-62
2021/08/23 10:00:54;;;;;;;6.93;6.32;;;;;;;21.56;68.43;100630.94;10319649;28;20103;-62
2021/08/23 10:05:56;;;;;;;8.00;7.30;;;;;;;21.39;70.45;100636.50;10315421;28;20459;-60
2021/08/23 10:10:57;;;;;;;6.85;6.25;;;;;;;21.40;72.62;100630.06;10318860;28;20583;-62
2021/08/23 10:16:01;;;;;;;7.53;6.85;;;;;;;21.60;71.81;100632.25;10315606;28;20301;-61
2021/08/23 10:21:07;;;;;;;8.30;7.60;;;;;;;21.21;71.60;100636.03;10299965;28;20082;-62
2021/08/23 10:26:09;;;;;;;7.43;6.75;;;;;;;21.53;71.71;100643.84;10303628;28;21663;-62
2021/08/23 10:31:11;;;;;;;7.85;7.15;;;;;;;21.88;70.72;100629.72;10315528;28;20244;-62
2021/08/23 10:36:16;;;;;;;7.57;6.93;;;;;;;22.29;70.24;100636.47;10310585;28;20056;-60
2021/08/23 10:41:25;;;;;;;6.28;5.68;;;;;;;24.22;61.27;100630.88;10315137;28;20061;-61
2021/08/23 10:46:31;;;;;;;5.97;5.43;;;;;;;25.17;58.40;100626.16;10331303;28;20120;-63
2021/08/23 10:51:38;;;;;;;6.28;5.78;;;;;;;26.31;53.55;100616.84;10318090;28;20077;-60
2021/08/23 10:56:40;;;;;;;5.70;5.13;;;;;;;25.88;54.72;100610.94;10315754;28;20037;-61
2021/08/23 11:01:58;;;;;;;6.23;5.73;;;;;;;25.76;53.95;100620.81;10314779;28;20495;-61
2021/08/23 11:07:02;;;;;;;5.90;5.40;;;;;;;27.27;49.47;100623.06;10313477;28;20179;-63
2021/08/23 11:12:17;;;;;;;6.38;5.88;;;;;;;27.95;47.86;100621.28;10317750;28;20054;-63
2021/08/23 11:17:33;;;;;;;5.13;4.63;;;;;;;27.32;49.47;100612.28;10316839;28;20093;-63
2021/08/23 11:22:34;;;;;;;5.70;5.13;;;;;;;28.61;44.74;100599.56;10316677;28;20050;-63
2021/08/23 11:27:37;;;;;;;5.40;5.00;;;;;;;34.31;34.94;100595.66;10312665;28;20137;-66
2021/08/23 11:32:38;;;;;;;4.68;4.28;;;;;;;37.17;29.69;100570.84;10310147;28;20531;-64
2021/08/23 11:37:40;;;;;;;5.00;4.60;;;;;;;39.60;25.88;100569.56;10315256;28;20133;-64
2021/08/23 11:42:42;;;;;;;4.40;4.10;;;;;;;40.54;22.73;100568.28;10315221;28;20132;-63
2021/08/23 11:47:58;;;;;;;4.80;4.50;;;;;;;41.63;21.51;100569.72;10314257;28;20192;-65
2021/08/23 11:53:09;;;;;;;4.43;3.97;;;;;;;39.35;23.67;100568.13;10310660;28;20050;-64
2021/08/23 11:58:15;;;;;;;4.77;4.33;;;;;;;33.40;31.75;100570.19;10314944;28;20096;-64
2021/08/23 12:03:17;;;;;;;4.40;4.10;;;;;;;32.59;34.14;100561.09;10315497;28;20061;-64
2021/08/23 12:08:34;;;;;;;3.83;3.53;;;;;;;33.54;32.13;100561.41;10311998;28;20050;-64
2021/08/23 12:13:50;;;;;;;3.75;3.45;;;;;;;32.88;33.04;100559.94;10334281;28;20125;-63
2021/08/23 12:18:52;;;;;;;4.05;3.75;;;;;;;32.65;33.17;100561.13;10315202;28;20558;-64
2021/08/23 12:23:57;;;;;;;4.00;3.70;;;;;;;30.65;36.57;100552.88;10313215;28;20106;-63
2021/08/23 12:29:15;;;;;;;4.78;4.38;;;;;;;29.66;38.97;100567.75;10312387;28;20124;-62
2021/08/23 12:34:21;;;;;;;4.28;3.97;;;;;;;28.44;41.98;100572.84;10310678;28;20129;-64
2021/08/23 12:39:23;;;;;;;4.97;4.57;;;;;;;27.37;45.85;100593.34;10311546;28;20144;-64
2021/08/23 12:44:24;;;;;;;4.90;4.50;;;;;;;25.62;49.61;100598.22;10315425;28;20054;-63
2021/08/23 12:49:26;;;;;;;4.43;3.45;;;;;;;24.37;53.40;100600.78;10312770;28;20487;-65
2021/08/23 12:54:32;;;;;;;4.15;3.80;;;;;;;24.38;54.63;100592.41;10314497;28;20057;-63
2021/08/23 12:59:33;;;;;;;4.47;3.90;;;;;;;23.98;56.49;100598.56;10326579;28;20189;-63
2021/08/23 13:04:50;;;;;;;4.50;3.95;;;;;;;23.76;59.27;100596.97;10311895;28;20054;-63
2021/08/23 13:09:51;;;;;;;5.57;4.28;;;;;;;22.90;62.07;100595.38;10314921;28;20496;-63
2021/08/23 13:14:53;;;;;;;4.95;4.55;;;;;;;21.78;67.04;100600.19;10322374;28;20123;-62
2021/08/23 13:19:54;;;;;;;5.25;4.03;;;;;;;21.58;67.79;100597.25;10324823;28;20065;-63
2021/08/23 13:24:56;;;;;;;4.03;3.65;;;;;;;21.79;69.21;100599.19;10321663;28;20066;-64
2021/08/23 13:29:57;;;;;;;4.53;4.13;;;;;;;22.57;66.21;100599.44;10328190;22;20066;-56
2021/08/23 13:34:59;;;;;;;5.75;5.20;;;;;;;23.28;64.79;100617.63;10353292;28;21910;-54
2021/08/23 13:40:00;;;;;;;5.10;4.60;;;;;;;23.02;67.78;100617.38;10356079;28;20101;-54
2021/08/23 13:45:03;;;;;;;4.28;3.88;;;;;;;22.69;69.59;100615.22;10349459;28;20142;-58
2021/08/23 13:50:05;;;;;;;;;;;;;;;22.70;70.38;100606.03;10349334;28;20516;-54
2021/08/23 13:55:06;;;;;;;3.67;3.30;;;;;;;22.88;68.38;100605.56;10351096;28;19965;-54
2021/08/23 14:00:09;;;;;;;3.15;2.80;;;;;;;23.12;69.37;100616.03;10353301;28;20056;-57
2021/08/23 14:05:11;;;;;;;2.78;1.95;;;;;;;23.34;66.50;100620.56;10354001;28;20049;-55
2021/08/23 14:10:22;;;;;;;3.17;2.03;;;;;;;23.60;67.18;100618.03;10349695;28;20602;-53
2021/08/23 14:15:23;;;;;;;2.78;1.75;;;;;;;23.91;65.70;100611.28;10345761;28;20912;-55
2021/08/23 14:20:24;;;;;;;1.98;1.75;;;;;;;24.10;64.92;100617.03;10345461;28;20157;-53
2021/08/23 14:25:26;;;;;;;2.75;1.75;;;;;;;24.14;64.65;100612.81;10344107;28;20073;-57
2021/08/23 14:30:27;;;;;;;4.40;2.40;;;;;;;24.17;64.48;100616.00;10345419;28;20172;-52
2021/08/23 14:35:29;;;;;;;2.47;2.05;;;;;;;24.10;65.61;100617.03;10345417;28;20496;-53
2021/08/23 14:40:30;;;;;;;2.47;2.28;;;;;;;23.78;63.36;100630.22;10342967;28;20172;-53
2021/08/23 14:45:32;;;;;;;2.47;2.28;;;;;;;23.46;62.91;100635.25;10347628;28;20152;-58
2021/08/23 14:50:33;;;;;;;2.45;2.25;;;;;;;23.06;64.07;100622.22;10346596;28;20049;-56
2021/08/23 14:55:36;;;;;;;1.80;1.70;;;;;;;22.98;63.60;100640.53;10348889;28;20139;-57
2021/08/23 15:00:37;;;;;;;2.45;1.80;;;;;;;23.01;63.85;100642.84;10345460;28;20145;-57
2021/08/23 15:05:39;;;;;;;1.85;1.52;;;;;;;23.30;62.03;100655.44;10342077;28;20148;-57
2021/08/23 15:10:40;;;;;;;2.75;2.55;;;;;;;23.29;60.68;100654.59;10342750;28;20478;-59
2021/08/23 15:15:42;;;;;;;3.33;2.00;;;;;;;23.22;60.83;100642.00;10353570;28;20135;-58
2021/08/23 15:20:45;;;;;;;3.60;2.05;;;;;;;23.29;61.16;100659.19;10346207;28;20049;-56
2021/08/23 15:25:49;;;;;;;3.28;2.38;;;;;;;23.28;58.82;100666.50;10346272;28;20482;-57
2021/08/23 15:30:50;;;;;;;;;;;;;;;23.07;59.82;100675.47;10343197;28;20077;-56
2021/08/23 15:35:52;;;;;;;4.93;2.90;;;;;;;23.11;59.91;100670.53;10339314;28;20251;-54
2021/08/23 15:40:57;;;;;;;4.78;3.38;;;;;;;22.83;59.53;100660.41;10339181;28;20073;-53
2021/08/23 15:45:58;;;;;;;4.25;3.85;;;;;;;22.93;59.80;100682.66;10341616;28;20119;-54
2021/08/23 15:51:00;;;;;;;4.10;3.80;;;;;;;22.84;60.66;100683.81;10347012;28;20200;-59
2021/08/23 15:56:01;;;;;;;5.72;3.95;;;;;;;22.53;59.72;100676.84;10341873;28;20077;-56
2021/08/23 16:01:03;;;;;;;4.53;4.13;;;;;;;22.42;59.85;100696.31;10345636;28;20147;-58
2021/08/23 16:06:07;;;;;;;5.13;4.60;;;;;;;22.22;60.14;100691.47;10344364;28;20056;-53
2021/08/23 16:11:09;;;;;;;5.68;3.90;;;;;;;22.22;60.60;100687.91;10354687;28;20503;-57
2021/08/23 16:16:10;;;;;;;4.50;4.10;;;;;;;22.08;61.00;100673.34;10346404;28;20045;-57
2021/08/23 16:21:12;;;;;;;4.65;4.25;;;;;;;21.84;61.36;100694.31;10340313;28;20069;-54
2021/08/23 16:26:13;;;;;;;5.75;5.03;;;;;;;21.75;62.17;100698.13;10343451;28;20053;-54
2021/08/23 16:31:15;;;;;;;5.57;5.13;;;;;;;21.49;62.29;100712.91;10343799;28;20068;-59
2021/08/23 16:36:16;;;;;;;5.72;5.22;;;;;;;21.50;62.51;100716.50;10338634;28;20049;-53
2021/08/23 16:41:18;;;;;;;4.75;4.35;;;;;;;21.47;62.55;100725.81;10358447;28;20156;-57
2021/08/23 16:46:20;;;;;;;6.50;5.90;;;;;;;21.42;62.95;100720.06;10345823;28;20356;-55
2021/08/23 16:51:21;;;;;;;5.45;5.03;;;;;;;21.41;62.38;100731.97;10347655;28;20054;-59
2021/08/23 16:56:23;;;;;;;5.00;4.50;;;;;;;21.39;62.62;100725.88;10351254;28;20116;-56
2021/08/23 17:01:25;;;;;;;7.30;4.43;;;;;;;21.45;62.07;100735.13;10355457;28;20182;-58
2021/08/23 17:06:27;;;;;;;5.35;4.85;;;;;;;21.30;62.92;100729.66;10350864;28;20131;-57
2021/08/23 17:11:28;;;;;;;5.00;4.60;;;;;;;21.27;62.25;100747.16;10344401;28;22025;-53
2021/08/23 17:16:31;;;;;;;5.72;4.90;;;;;;;21.21;62.95;100747.00;10347359;28;20134;-55
2021/08/23 17:21:33;;;;;;;5.50;4.50;;;;;;;21.17;63.15;100743.84;10364691;28;20046;-54
2021/08/23 17:26:34;;;;;;;5.90;5.28;;;;;;;21.14;62.78;100730.66;10349458;28;20123;-58
2021/08/23 17:31:35;;;;;;;6.20;4.80;;;;;;;21.16;63.10;100740.25;10348429;28;20136;-53
2021/08/23 17:36:37;;;;;;;5.32;4.82;;;;;;;20.98;63.87;100747.84;10345242;28;20494;-54
2021/08/23 17:41:38;;;;;;;5.15;4.45;;;;;;;20.96;63.51;100756.16;10348026;28;20077;-58
2021/08/23 17:46:40;;;;;;;6.30;5.05;;;;;;;20.89;64.60;100759.75;10353937;28;20495;-58
2021/08/23 17:51:41;;;;;;;4.72;4.28;;;;;;;20.84;65.24;100773.81;10349565;28;20641;-54
2021/08/23 17:56:43;;;;;;;5.55;4.95;;;;;;;20.76;65.38;100776.56;10347917;28;20061;-54
2021/08/23 18:01:44;;;;;;;5.10;4.35;;;;;;;20.68;66.07;100777.47;10346467;28;20152;-53
2021/08/23 18:06:46;;;;;;;5.07;4.68;;;;;;;20.62;66.40;100783.53;10344020;28;20077;-54
2021/08/23 18:11:47;;;;;;;5.63;5.13;;;;;;;20.48;67.42;100779.72;10342710;28;20058;-55
2021/08/23 18:16:49;;;;;;;6.15;5.25;;;;;;;20.41;67.39;100768.75;10350275;28;20061;-52
2021/08/23 18:21:50;;;;;;;6.25;5.30;;;;;;;20.43;67.36;100782.97;10345907;28;20181;-52
2021/08/23 18:26:52;;;;;;;5.68;5.07;;;;;;;20.40;67.81;100801.38;10352067;28;20041;-53
2021/08/23 18:31:53;;;;;;;5.72;5.22;;;;;;;20.36;67.25;100800.91;10346587;28;20567;-51
2021/08/23 18:36:55;;;;;;;5.40;4.90;;;;;;;20.33;68.26;100806.66;10340754;28;20188;-52
2021/08/23 18:41:56;;;;;;;7.28;6.00;;;;;;;20.29;69.04;100802.59;10346598;28;20093;-53
2021/08/23 18:46:57;;;;;;;6.18;5.10;;;;;;;20.26;68.89;100817.28;10343463;28;20065;-53
2021/08/23 18:51:59;;;;;;;6.47;5.72;;;;;;;20.22;69.44;100817.81;10349334;28;20087;-53
2021/08/23 18:57:00;;;;;;;5.43;4.93;;;;;;;20.09;69.77;100811.09;10348581;28;20690;-52
2021/08/23 19:02:02;;;;;;;6.50;5.78;;;;;;;20.09;68.89;100819.22;10343542;28;20128;-53
2021/08/23 19:07:04;;;;;;;7.20;5.88;;;;;;;20.03;69.01;100830.72;10342091;28;20062;-52
2021/08/23 19:12:06;;;;;;;6.18;5.68;;;;;;;19.94;68.82;100824.47;10346961;28;20053;-52
2021/08/23 19:17:08;;;;;;;5.63;5.13;;;;;;;19.99;68.88;100834.75;10347395;28;20196;-53
2021/08/23 19:22:09;;;;;;;5.75;5.25;;;;;;;19.95;68.74;100844.22;10345509;28;20057;-55
2021/08/23 19:27:11;;;;;;;6.18;5.32;;;;;;;19.77;69.63;100847.97;10358642;28;20053;-54
2021/08/23 19:32:13;;;;;;;5.35;4.85;;;;;;;19.61;68.30;100847.94;10368546;28;20103;-57
2021/08/23 19:37:14;;;;;;;5.75;5.10;;;;;;;19.47;69.65;100845.88;10364374;28;20052;-56
2021/08/23 19:42:16;;;;;;;5.55;5.07;;;;;;;19.40;69.64;100851.94;10365131;22;20073;-61
2021/08/23 19:47:17;;;;;;;7.97;7.15;;;;;;;19.24;69.48;100854.63;10380943;28;20495;-62
2021/08/23 19:52:19;;;;;;;6.57;5.32;;;;;;;19.03;69.82;100855.91;10380031;28;20123;-63
2021/08/23 19:57:20;;;;;;;7.07;4.55;;;;;;;19.13;69.41;100865.75;10381958;28;20100;-64
2021/08/23 20:02:21;;;;;;;4.25;3.90;;;;;;;19.18;69.13;100866.91;10382827;28;20579;-62
2021/08/23 20:07:23;;;;;;;4.57;3.90;;;;;;;19.22;68.11;100870.16;10382611;28;20049;-62
2021/08/23 20:12:25;;;;;;;4.35;3.78;;;;;;;18.89;67.77;100875.44;10383771;28;20042;-62
2021/08/23 20:17:26;;;;;;;4.13;3.78;;;;;;;18.72;68.70;100875.34;10372508;28;20073;-61
2021/08/23 20:22:29;;;;;;;4.45;4.00;;;;;;;18.84;69.37;100880.44;10382331;28;20045;-61
2021/08/23 20:27:30;;;;;;;4.53;4.10;;;;;;;18.84;71.07;100883.13;10381739;28;20099;-62
2021/08/23 20:32:31;;;;;;;5.10;4.60;;;;;;;18.69;71.33;100875.66;10379819;28;20045;-63
2021/08/23 20:37:51;;;;;;;6.70;4.43;;;;;;;18.62;71.03;100882.72;10377778;28;20045;-64
2021/08/23 20:42:59;;;;;;;4.15;3.75;;;;;;;18.55;71.26;100885.22;10380294;28;20069;-65
2021/08/23 20:48:01;;;;;;;5.00;4.47;;;;;;;18.68;70.76;100883.91;10379868;28;20115;-62
2021/08/23 20:53:04;;;;;;;5.13;3.90;;;;;;;18.33;70.97;100883.91;10381635;28;20572;-63
2021/08/23 20:58:06;;;;;;;4.65;4.00;;;;;;;18.48;70.46;100877.91;10375856;28;20124;-62
2021/08/23 21:03:08;;;;;;;3.97;3.58;;;;;;;18.31;70.00;100885.06;10376399;28;22969;-62
2021/08/23 21:08:09;;;;;;;4.40;3.53;;;;;;;18.07;70.22;100880.34;10381607;28;20061;-62
2021/08/23 21:13:11;;;;;;;3.60;3.30;;;;;;;18.01;70.62;100888.06;10378778;28;20123;-62
2021/08/23 21:18:12;;;;;;;3.47;3.17;;;;;;;18.06;70.74;100886.72;10380480;28;20069;-61
2021/08/23 21:23:14;;;;;;;3.50;2.95;;;;;;;18.07;70.10;100880.34;10379896;28;20041;-62
2021/08/23 21:28:15;;;;;;;2.25;2.05;;;;;;;17.98;68.23;100887.50;10381347;28;20317;-64
2021/08/23 21:33:16;;;;;;;3.55;2.00;;;;;;;17.78;68.78;100890.34;10385324;28;20103;-63
2021/08/23 21:38:18;;;;;;;2.67;2.40;;;;;;;17.91;68.41;100894.53;10387720;28;20061;-62
2021/08/23 21:43:19;;;;;;;3.83;2.13;;;;;;;17.97;68.35;100896.59;10388197;28;20211;-63
2021/08/23 21:48:21;;;;;;;1.55;1.40;;;;;;;17.80;68.58;100895.59;10386712;28;20057;-61
2021/08/23 21:53:24;;;;;;;3.72;1.85;;;;;;;17.90;67.35;100893.69;10387257;28;20065;-62
2021/08/23 21:58:26;;;;;;;1.97;1.40;;;;;;;17.72;67.16;100887.44;10379788;28;20164;-63
2021/08/23 22:03:29;;;;;;;3.15;1.77;;;;;;;17.79;67.33;100893.88;10387723;28;20132;-62
2021/08/23 22:08:31;;;;;;;2.00;1.80;;;;;;;17.63;66.66;100890.06;10387106;28;20120;-62
2021/08/23 22:13:32;;;;;;;3.60;2.28;;;;;;;17.42;67.27;100900.28;10388049;28;20069;-62
2021/08/23 22:18:34;;;;;;;2.20;1.70;;;;;;;17.25;68.56;100908.19;10387280;28;20069;-63
2021/08/23 22:23:36;;;;;;;2.10;1.77;;;;;;;17.40;66.34;100907.66;10387340;28;20134;-62
2021/08/23 22:28:38;;;;;;;5.05;3.03;;;;;;;17.18;67.54;100907.09;10383227;28;20490;-61
2021/08/23 22:33:40;;;;;;;2.95;1.50;;;;;;;17.23;68.15;100910.16;10386170;28;20045;-63
2021/08/23 22:38:41;;;;;;;3.05;2.20;;;;;;;17.37;67.99;100910.66;10384124;28;20050;-62
2021/08/23 22:43:43;;;;;;;2.15;1.80;;;;;;;17.33;67.85;100911.97;10384540;28;20045;-62
2021/08/23 22:48:45;;;;;;;2.47;2.00;;;;;;;17.28;68.73;100913.25;10380931;28;20069;-62
2021/08/23 22:53:47;;;;;;;3.28;2.10;;;;;;;17.27;68.97;100919.63;10385313;28;20087;-66
2021/08/23 22:58:49;;;;;;;3.08;1.95;;;;;;;17.18;68.13;100912.47;10385723;28;20049;-61
2021/08/23 23:03:50;;;;;;;3.17;2.45;;;;;;;17.07;68.90;100918.91;10385277;28;20099;-62
2021/08/23 23:08:52;;;;;;;2.65;2.45;;;;;;;17.19;68.46;100919.56;10384042;28;20057;-61